sensor_id;sensor_type;location;lat;lon;timestamp;pressure;altitude;pressure_sealevel;temperature;humidity
61761;BME280;47664;51.660;-0.100;2023-05-07T00:01:34;100733.16;;;14.07;64.96
61761;BME280;47664;51.660;-0.100;2023-05-07T00:04:01;100730.19;;;14.35;65.36
61761;BME280;47664;51.660;-0.100;2023-05-07T00:06:29;100727.95;;;14.28;64.62
61761;BME280;47664;51.660;-0.100;2023-05-07T00:08:58;100728.55;;;14.56;64.15
61761;BME280;47664;51.660;-0.100;2023-05-07T00:11:25;100725.70;;;13.91;64.05
61761;BME280;47664;51.660;-0.100;2023-05-07T00:13:53;100725.33;;;14.08;64.89
61761;BME280;47664;51.660;-0.100;2023-05-07T00:16:21;100725.12;;;13.65;64.02
61761;BME280;47664;51.660;-0.100;2023-05-07T00:18:48;100728.93;;;14.53;63.58
61761;BME280;47664;51.660;-0.100;2023-05-07T00:21:15;100731.95;;;13.76;63.70
61761;BME280;47664;51.660;-0.100;2023-05-07T00:23:42;100731.31;;;14.49;63.17
61761;BME280;47664;51.660;-0.100;2023-05-07T00:26:10;100726.73;;;14.64;62.78
61761;BME280;47664;51.660;-0.100;2023-05-07T00:28:37;100725.77;;;14.63;62.83
61761;BME280;47664;51.660;-0.100;2023-05-07T00:31:04;100725.58;;;14.48;62.83
61761;BME280;47664;51.660;-0.100;2023-05-07T00:33:31;100726.37;;;14.28;62.99
61761;BME280;47664;51.660;-0.100;2023-05-07T00:35:58;100729.96;;;14.58;62.90
61761;BME280;47664;51.660;-0.100;2023-05-07T00:38:25;100731.93;;;14.09;63.13
61761;BME280;47664;51.660;-0.100;2023-05-07T00:40:53;100729.56;;;14.48;62.75
61761;BME280;47664;51.660;-0.100;2023-05-07T00:43:20;100733.36;;;13.99;63.27
61761;BME280;47664;51.660;-0.100;2023-05-07T00:45:47;100731.68;;;14.50;63.53
61761;BME280;47664;51.660;-0.100;2023-05-07T00:48:15;100729.94;;;14.03;63.90
61761;BME280;47664;51.660;-0.100;2023-05-07T00:50:43;100729.89;;;14.49;63.76
61761;BME280;47664;51.660;-0.100;2023-05-07T00:53:12;100727.20;;;14.69;63.10
61761;BME280;47664;51.660;-0.100;2023-05-07T00:55:39;100729.45;;;14.68;62.98
61761;BME280;47664;51.660;-0.100;2023-05-07T00:58:06;100729.25;;;14.74;62.93
61761;BME280;47664;51.660;-0.100;2023-05-07T01:00:34;100726.76;;;14.72;62.50
61761;BME280;47664;51.660;-0.100;2023-05-07T01:03:01;100728.35;;;14.54;62.90
61761;BME280;47664;51.660;-0.100;2023-05-07T01:05:29;100730.66;;;14.18;62.96
61761;BME280;47664;51.660;-0.100;2023-05-07T01:07:57;100733.85;;;14.55;62.75
61761;BME280;47664;51.660;-0.100;2023-05-07T01:10:24;100735.63;;;14.33;62.82
61761;BME280;47664;51.660;-0.100;2023-05-07T01:12:54;100735.07;;;14.42;62.85
61761;BME280;47664;51.660;-0.100;2023-05-07T01:15:21;100739.70;;;13.80;63.63
61761;BME280;47664;51.660;-0.100;2023-05-07T01:17:48;100739.70;;;14.55;63.16
61761;BME280;47664;51.660;-0.100;2023-05-07T01:20:15;100739.11;;;14.12;63.10
61761;BME280;47664;51.660;-0.100;2023-05-07T01:22:43;100738.14;;;14.46;63.35
61761;BME280;47664;51.660;-0.100;2023-05-07T01:25:11;100737.64;;;14.43;63.28
61761;BME280;47664;51.660;-0.100;2023-05-07T01:27:38;100733.64;;;14.31;63.35
61761;BME280;47664;51.660;-0.100;2023-05-07T01:30:06;100734.21;;;14.26;63.43
61761;BME280;47664;51.660;-0.100;2023-05-07T01:32:37;100736.22;;;14.28;63.54
61761;BME280;47664;51.660;-0.100;2023-05-07T01:35:09;100737.84;;;14.20;63.78
61761;BME280;47664;51.660;-0.100;2023-05-07T01:37:38;100738.26;;;14.24;64.45
61761;BME280;47664;51.660;-0.100;2023-05-07T01:40:07;100742.33;;;14.25;64.09
61761;BME280;47664;51.660;-0.100;2023-05-07T01:42:35;100743.99;;;13.96;63.84
61761;BME280;47664;51.660;-0.100;2023-05-07T01:45:03;100742.15;;;14.18;63.75
61761;BME280;47664;51.660;-0.100;2023-05-07T01:47:31;100739.82;;;14.37;63.75
61761;BME280;47664;51.660;-0.100;2023-05-07T01:49:59;100739.61;;;14.58;63.18
61761;BME280;47664;51.660;-0.100;2023-05-07T01:52:28;100738.10;;;13.56;63.54
61761;BME280;47664;51.660;-0.100;2023-05-07T01:54:55;100741.72;;;14.37;63.40
61761;BME280;47664;51.660;-0.100;2023-05-07T01:57:22;100740.13;;;13.22;64.01
61761;BME280;47664;51.660;-0.100;2023-05-07T01:59:50;100741.04;;;13.87;64.42
61761;BME280;47664;51.660;-0.100;2023-05-07T02:02:17;100742.88;;;13.56;63.69
61761;BME280;47664;51.660;-0.100;2023-05-07T02:04:44;100744.84;;;14.18;63.36
61761;BME280;47664;51.660;-0.100;2023-05-07T02:07:11;100746.29;;;14.48;63.02
61761;BME280;47664;51.660;-0.100;2023-05-07T02:09:39;100753.06;;;14.19;63.08
61761;BME280;47664;51.660;-0.100;2023-05-07T02:12:06;100750.59;;;14.22;63.14
61761;BME280;47664;51.660;-0.100;2023-05-07T02:14:33;100750.63;;;14.32;62.65
61761;BME280;47664;51.660;-0.100;2023-05-07T02:17:00;100750.31;;;14.34;62.84
61761;BME280;47664;51.660;-0.100;2023-05-07T02:19:27;100750.83;;;13.25;63.87
61761;BME280;47664;51.660;-0.100;2023-05-07T02:21:55;100747.60;;;14.09;63.95
61761;BME280;47664;51.660;-0.100;2023-05-07T02:24:22;100749.99;;;13.16;64.09
61761;BME280;47664;51.660;-0.100;2023-05-07T02:26:49;100751.73;;;13.73;63.93
61761;BME280;47664;51.660;-0.100;2023-05-07T02:29:17;100755.21;;;13.43;63.41
61761;BME280;47664;51.660;-0.100;2023-05-07T02:31:45;100757.21;;;14.07;63.13
61761;BME280;47664;51.660;-0.100;2023-05-07T02:34:12;100753.21;;;14.11;63.02
61761;BME280;47664;51.660;-0.100;2023-05-07T02:36:39;100755.79;;;14.28;62.80
61761;BME280;47664;51.660;-0.100;2023-05-07T02:39:07;100760.21;;;14.43;62.86
61761;BME280;47664;51.660;-0.100;2023-05-07T02:41:34;100761.40;;;14.33;62.64
61761;BME280;47664;51.660;-0.100;2023-05-07T02:44:01;100761.43;;;14.60;62.51
61761;BME280;47664;51.660;-0.100;2023-05-07T02:46:29;100759.80;;;14.29;62.63
61761;BME280;47664;51.660;-0.100;2023-05-07T02:48:57;100757.52;;;14.31;62.75
61761;BME280;47664;51.660;-0.100;2023-05-07T02:51:25;100752.14;;;13.27;62.82
61761;BME280;47664;51.660;-0.100;2023-05-07T02:53:52;100751.60;;;14.26;62.51
61761;BME280;47664;51.660;-0.100;2023-05-07T02:56:21;100750.81;;;12.99;62.21
61761;BME280;47664;51.660;-0.100;2023-05-07T02:58:50;100756.64;;;13.09;60.11
61761;BME280;47664;51.660;-0.100;2023-05-07T03:01:18;100761.88;;;14.47;60.05
61761;BME280;47664;51.660;-0.100;2023-05-07T03:03:45;100757.71;;;15.06;60.71
61761;BME280;47664;51.660;-0.100;2023-05-07T03:06:13;100757.70;;;14.38;61.59
61761;BME280;47664;51.660;-0.100;2023-05-07T03:08:40;100758.10;;;14.38;62.02
61761;BME280;47664;51.660;-0.100;2023-05-07T03:11:07;100761.77;;;14.37;61.90
61761;BME280;47664;51.660;-0.100;2023-05-07T03:13:34;100766.38;;;13.95;62.10
61761;BME280;47664;51.660;-0.100;2023-05-07T03:16:01;100769.60;;;14.33;62.19
61761;BME280;47664;51.660;-0.100;2023-05-07T03:18:29;100773.12;;;13.84;62.24
61761;BME280;47664;51.660;-0.100;2023-05-07T03:20:55;100771.94;;;14.52;61.88
61761;BME280;47664;51.660;-0.100;2023-05-07T03:23:23;100769.40;;;13.51;62.30
61761;BME280;47664;51.660;-0.100;2023-05-07T03:25:50;100773.65;;;14.08;62.62
61761;BME280;47664;51.660;-0.100;2023-05-07T03:28:18;100775.70;;;13.68;62.79
61761;BME280;47664;51.660;-0.100;2023-05-07T03:30:45;100769.49;;;14.46;62.74
61761;BME280;47664;51.660;-0.100;2023-05-07T03:33:13;100770.57;;;14.28;62.59
61761;BME280;47664;51.660;-0.100;2023-05-07T03:35:40;100772.95;;;14.18;62.15
61761;BME280;47664;51.660;-0.100;2023-05-07T03:38:07;100779.24;;;14.44;62.68
61761;BME280;47664;51.660;-0.100;2023-05-07T03:40:35;100783.31;;;14.14;62.77
61761;BME280;47664;51.660;-0.100;2023-05-07T03:43:02;100784.65;;;13.85;63.42
61761;BME280;47664;51.660;-0.100;2023-05-07T03:45:30;100784.59;;;14.02;62.95
61761;BME280;47664;51.660;-0.100;2023-05-07T03:47:57;100780.47;;;14.12;63.27
61761;BME280;47664;51.660;-0.100;2023-05-07T03:50:25;100784.11;;;13.38;63.31
61761;BME280;47664;51.660;-0.100;2023-05-07T03:52:52;100784.06;;;14.08;63.51
61761;BME280;47664;51.660;-0.100;2023-05-07T03:55:20;100786.35;;;13.45;63.38
61761;BME280;47664;51.660;-0.100;2023-05-07T03:57:48;100791.51;;;14.15;63.47
61761;BME280;47664;51.660;-0.100;2023-05-07T04:00:15;100794.69;;;14.24;62.73
61761;BME280;47664;51.660;-0.100;2023-05-07T04:02:43;100797.23;;;14.15;62.98
61761;BME280;47664;51.660;-0.100;2023-05-07T04:05:11;100796.07;;;14.44;62.86
61761;BME280;47664;51.660;-0.100;2023-05-07T04:07:39;100798.86;;;14.10;62.96
61761;BME280;47664;51.660;-0.100;2023-05-07T04:10:06;100794.78;;;14.14;63.04
61761;BME280;47664;51.660;-0.100;2023-05-07T04:12:34;100797.13;;;14.24;62.75
61761;BME280;47664;51.660;-0.100;2023-05-07T04:15:01;100798.12;;;14.38;63.04
61761;BME280;47664;51.660;-0.100;2023-05-07T04:17:29;100803.47;;;13.89;63.01
61761;BME280;47664;51.660;-0.100;2023-05-07T04:19:56;100805.21;;;14.19;62.88
61761;BME280;47664;51.660;-0.100;2023-05-07T04:22:23;100806.29;;;13.40;63.32
61761;BME280;47664;51.660;-0.100;2023-05-07T04:24:51;100809.05;;;14.19;62.66
61761;BME280;47664;51.660;-0.100;2023-05-07T04:27:18;100816.16;;;13.62;63.08
61761;BME280;47664;51.660;-0.100;2023-05-07T04:29:45;100819.06;;;14.04;63.23
61761;BME280;47664;51.660;-0.100;2023-05-07T04:32:13;100819.56;;;14.12;63.19
61761;BME280;47664;51.660;-0.100;2023-05-07T04:34:41;100820.77;;;14.15;63.36
61761;BME280;47664;51.660;-0.100;2023-05-07T04:37:09;100819.92;;;13.99;64.00
61761;BME280;47664;51.660;-0.100;2023-05-07T04:39:36;100822.27;;;13.53;65.00
61761;BME280;47664;51.660;-0.100;2023-05-07T04:42:03;100824.27;;;13.99;64.43
61761;BME280;47664;51.660;-0.100;2023-05-07T04:44:31;100825.68;;;13.80;64.31
61761;BME280;47664;51.660;-0.100;2023-05-07T04:46:58;100829.46;;;14.02;64.03
61761;BME280;47664;51.660;-0.100;2023-05-07T04:49:25;100831.61;;;13.88;63.77
61761;BME280;47664;51.660;-0.100;2023-05-07T04:51:52;100833.43;;;14.16;63.25
61761;BME280;47664;51.660;-0.100;2023-05-07T04:54:20;100836.24;;;13.34;63.44
61761;BME280;47664;51.660;-0.100;2023-05-07T04:56:47;100839.68;;;14.09;63.79
61761;BME280;47664;51.660;-0.100;2023-05-07T04:59:15;100842.75;;;13.97;63.44
61761;BME280;47664;51.660;-0.100;2023-05-07T05:01:42;100841.89;;;14.17;63.56
61761;BME280;47664;51.660;-0.100;2023-05-07T05:04:10;100839.94;;;13.81;63.77
61761;BME280;47664;51.660;-0.100;2023-05-07T05:06:37;100840.68;;;13.95;64.28
61761;BME280;47664;51.660;-0.100;2023-05-07T05:09:05;100844.17;;;13.89;63.95
61761;BME280;47664;51.660;-0.100;2023-05-07T05:11:32;100848.28;;;13.23;63.97
61761;BME280;47664;51.660;-0.100;2023-05-07T05:14:00;100851.66;;;14.21;63.83
61761;BME280;47664;51.660;-0.100;2023-05-07T05:16:27;100852.59;;;13.64;63.53
61761;BME280;47664;51.660;-0.100;2023-05-07T05:18:54;100853.88;;;14.17;63.18
61761;BME280;47664;51.660;-0.100;2023-05-07T05:21:21;100852.53;;;13.53;62.97
61761;BME280;47664;51.660;-0.100;2023-05-07T05:23:49;100856.54;;;14.08;62.78
61761;BME280;47664;51.660;-0.100;2023-05-07T05:26:16;100853.90;;;13.83;62.81
61761;BME280;47664;51.660;-0.100;2023-05-07T05:28:45;100854.08;;;13.16;62.51
61761;BME280;47664;51.660;-0.100;2023-05-07T05:31:13;100856.61;;;13.60;60.49
61761;BME280;47664;51.660;-0.100;2023-05-07T05:33:41;100857.35;;;13.95;59.03
61761;BME280;47664;51.660;-0.100;2023-05-07T05:36:09;100859.04;;;15.34;59.76
61761;BME280;47664;51.660;-0.100;2023-05-07T05:38:37;100856.28;;;14.84;60.97
61761;BME280;47664;51.660;-0.100;2023-05-07T05:41:04;100854.71;;;14.33;62.22
61761;BME280;47664;51.660;-0.100;2023-05-07T05:43:31;100851.75;;;14.16;62.70
61761;BME280;47664;51.660;-0.100;2023-05-07T05:45:59;100850.77;;;14.18;63.13
61761;BME280;47664;51.660;-0.100;2023-05-07T05:48:28;100850.98;;;14.14;62.57
61761;BME280;47664;51.660;-0.100;2023-05-07T05:50:55;100857.84;;;14.73;62.84
61761;BME280;47664;51.660;-0.100;2023-05-07T05:53:22;100861.51;;;13.86;62.83
61761;BME280;47664;51.660;-0.100;2023-05-07T05:55:49;100864.11;;;14.68;62.90
61761;BME280;47664;51.660;-0.100;2023-05-07T05:58:17;100866.43;;;13.86;63.09
61761;BME280;47664;51.660;-0.100;2023-05-07T06:00:47;100869.62;;;14.15;62.82
61761;BME280;47664;51.660;-0.100;2023-05-07T06:03:14;100872.52;;;13.94;62.99
61761;BME280;47664;51.660;-0.100;2023-05-07T06:05:42;100869.11;;;14.50;62.72
61761;BME280;47664;51.660;-0.100;2023-05-07T06:08:08;100872.71;;;14.43;62.66
61761;BME280;47664;51.660;-0.100;2023-05-07T06:10:36;100872.48;;;14.24;63.13
61761;BME280;47664;51.660;-0.100;2023-05-07T06:13:03;100874.01;;;14.32;62.91
61761;BME280;47664;51.660;-0.100;2023-05-07T06:15:31;100877.82;;;14.29;62.84
61761;BME280;47664;51.660;-0.100;2023-05-07T06:17:58;100883.25;;;14.53;62.71
61761;BME280;47664;51.660;-0.100;2023-05-07T06:20:25;100884.49;;;13.96;62.69
61761;BME280;47664;51.660;-0.100;2023-05-07T06:22:52;100886.03;;;14.35;62.62
61761;BME280;47664;51.660;-0.100;2023-05-07T06:25:20;100890.74;;;14.06;62.64
61761;BME280;47664;51.660;-0.100;2023-05-07T06:27:47;100893.15;;;14.27;62.88
61761;BME280;47664;51.660;-0.100;2023-05-07T06:30:14;100895.35;;;14.42;62.98
61761;BME280;47664;51.660;-0.100;2023-05-07T06:32:42;100894.68;;;14.59;62.41
61761;BME280;47664;51.660;-0.100;2023-05-07T06:35:09;100895.93;;;14.71;62.53
61761;BME280;47664;51.660;-0.100;2023-05-07T06:37:36;100897.35;;;14.05;62.18
61761;BME280;47664;51.660;-0.100;2023-05-07T06:40:04;100897.76;;;14.59;62.43
61761;BME280;47664;51.660;-0.100;2023-05-07T06:42:31;100902.24;;;14.59;62.41
61761;BME280;47664;51.660;-0.100;2023-05-07T06:44:58;100902.19;;;14.42;62.11
61761;BME280;47664;51.660;-0.100;2023-05-07T06:47:25;100905.11;;;13.63;62.34
61761;BME280;47664;51.660;-0.100;2023-05-07T06:49:53;100905.65;;;14.28;62.13
61761;BME280;47664;51.660;-0.100;2023-05-07T06:52:20;100907.97;;;14.15;62.28
61761;BME280;47664;51.660;-0.100;2023-05-07T06:54:47;100913.85;;;14.50;62.96
61761;BME280;47664;51.660;-0.100;2023-05-07T06:57:15;100916.28;;;14.09;63.11
61761;BME280;47664;51.660;-0.100;2023-05-07T06:59:42;100915.84;;;14.47;62.94
61761;BME280;47664;51.660;-0.100;2023-05-07T07:02:10;100910.58;;;14.61;62.30
61761;BME280;47664;51.660;-0.100;2023-05-07T07:04:37;100910.95;;;14.74;62.94
61761;BME280;47664;51.660;-0.100;2023-05-07T07:07:04;100910.03;;;14.73;63.37
61761;BME280;47664;51.660;-0.100;2023-05-07T07:09:31;100911.19;;;14.35;62.99
61761;BME280;47664;51.660;-0.100;2023-05-07T07:11:59;100913.45;;;14.77;62.77
61761;BME280;47664;51.660;-0.100;2023-05-07T07:14:26;100912.41;;;13.71;63.14
61761;BME280;47664;51.660;-0.100;2023-05-07T07:16:53;100912.76;;;14.00;64.66
61761;BME280;47664;51.660;-0.100;2023-05-07T07:19:20;100910.17;;;13.60;64.35
61761;BME280;47664;51.660;-0.100;2023-05-07T07:21:47;100910.05;;;14.29;65.05
61761;BME280;47664;51.660;-0.100;2023-05-07T07:24:14;100910.70;;;13.77;65.32
61761;BME280;47664;51.660;-0.100;2023-05-07T07:26:42;100911.83;;;14.15;65.13
61761;BME280;47664;51.660;-0.100;2023-05-07T07:29:09;100915.28;;;14.95;64.08
61761;BME280;47664;51.660;-0.100;2023-05-07T07:31:36;100918.20;;;14.85;63.62
61761;BME280;47664;51.660;-0.100;2023-05-07T07:34:03;100922.13;;;15.06;63.12
61761;BME280;47664;51.660;-0.100;2023-05-07T07:36:30;100927.23;;;14.81;62.73
61761;BME280;47664;51.660;-0.100;2023-05-07T07:38:57;100930.48;;;15.19;62.98
61761;BME280;47664;51.660;-0.100;2023-05-07T07:41:24;100930.95;;;14.21;62.53
61761;BME280;47664;51.660;-0.100;2023-05-07T07:43:51;100930.10;;;15.02;62.00
61761;BME280;47664;51.660;-0.100;2023-05-07T07:46:19;100930.79;;;14.62;62.43
61761;BME280;47664;51.660;-0.100;2023-05-07T07:48:47;100934.09;;;15.14;62.35
61761;BME280;47664;51.660;-0.100;2023-05-07T07:51:14;100933.59;;;15.20;61.87
61761;BME280;47664;51.660;-0.100;2023-05-07T07:53:43;100936.56;;;14.37;61.27
61761;BME280;47664;51.660;-0.100;2023-05-07T07:56:11;100939.88;;;13.72;60.06
61761;BME280;47664;51.660;-0.100;2023-05-07T07:58:39;100937.88;;;15.68;58.12
61761;BME280;47664;51.660;-0.100;2023-05-07T08:01:05;100932.97;;;16.13;58.69
61761;BME280;47664;51.660;-0.100;2023-05-07T08:03:32;100936.20;;;15.35;59.87
61761;BME280;47664;51.660;-0.100;2023-05-07T08:06:00;100940.99;;;15.36;61.65
61761;BME280;47664;51.660;-0.100;2023-05-07T08:08:27;100941.67;;;14.88;62.14
61761;BME280;47664;51.660;-0.100;2023-05-07T08:10:54;100941.85;;;15.32;60.95
61761;BME280;47664;51.660;-0.100;2023-05-07T08:13:22;100941.62;;;14.81;60.79
61761;BME280;47664;51.660;-0.100;2023-05-07T08:15:49;100939.57;;;15.57;60.51
61761;BME280;47664;51.660;-0.100;2023-05-07T08:18:17;100946.04;;;15.01;61.21
61761;BME280;47664;51.660;-0.100;2023-05-07T08:20:43;100948.55;;;15.01;62.06
61761;BME280;47664;51.660;-0.100;2023-05-07T08:23:11;100949.87;;;15.53;61.55
61761;BME280;47664;51.660;-0.100;2023-05-07T08:25:38;100950.90;;;15.43;62.32
61761;BME280;47664;51.660;-0.100;2023-05-07T08:28:05;100951.63;;;15.39;62.42
61761;BME280;47664;51.660;-0.100;2023-05-07T08:30:32;100953.70;;;14.75;62.61
61761;BME280;47664;51.660;-0.100;2023-05-07T08:33:00;100959.02;;;15.81;61.50
61761;BME280;47664;51.660;-0.100;2023-05-07T08:35:27;100963.39;;;14.68;62.15
61761;BME280;47664;51.660;-0.100;2023-05-07T08:37:53;100964.78;;;15.40;62.73
61761;BME280;47664;51.660;-0.100;2023-05-07T08:40:24;100973.38;;;14.58;62.53
61761;BME280;47664;51.660;-0.100;2023-05-07T08:42:52;100974.84;;;15.25;62.94
61761;BME280;47664;51.660;-0.100;2023-05-07T08:45:20;100975.00;;;14.79;62.69
61761;BME280;47664;51.660;-0.100;2023-05-07T08:47:51;100973.40;;;15.14;62.41
61761;BME280;47664;51.660;-0.100;2023-05-07T08:50:22;100974.46;;;14.73;61.86
61761;BME280;47664;51.660;-0.100;2023-05-07T08:52:49;100976.05;;;15.33;62.03
61761;BME280;47664;51.660;-0.100;2023-05-07T08:55:16;100976.09;;;15.53;62.07
61761;BME280;47664;51.660;-0.100;2023-05-07T08:57:44;100977.57;;;15.43;60.59
61761;BME280;47664;51.660;-0.100;2023-05-07T09:00:13;100977.31;;;15.98;60.99
61761;BME280;47664;51.660;-0.100;2023-05-07T09:02:40;100975.85;;;15.54;61.39
61761;BME280;47664;51.660;-0.100;2023-05-07T09:05:07;100981.39;;;15.90;60.77
61761;BME280;47664;51.660;-0.100;2023-05-07T09:07:34;100983.19;;;15.86;60.28
61761;BME280;47664;51.660;-0.100;2023-05-07T09:10:02;100983.55;;;15.96;61.84
61761;BME280;47664;51.660;-0.100;2023-05-07T09:12:29;100985.28;;;15.38;62.17
61761;BME280;47664;51.660;-0.100;2023-05-07T09:14:57;100987.31;;;15.65;61.51
61761;BME280;47664;51.660;-0.100;2023-05-07T09:17:25;100989.37;;;15.02;61.32
61761;BME280;47664;51.660;-0.100;2023-05-07T09:19:52;100991.51;;;15.83;61.07
61761;BME280;47664;51.660;-0.100;2023-05-07T09:22:20;100991.44;;;15.13;61.06
61761;BME280;47664;51.660;-0.100;2023-05-07T09:24:48;100992.05;;;15.66;61.73
61761;BME280;47664;51.660;-0.100;2023-05-07T09:27:16;100992.95;;;15.67;60.85
61761;BME280;47664;51.660;-0.100;2023-05-07T09:29:44;100995.05;;;15.65;60.98
61761;BME280;47664;51.660;-0.100;2023-05-07T09:32:12;100997.77;;;16.16;61.37
61761;BME280;47664;51.660;-0.100;2023-05-07T09:34:41;101003.17;;;15.49;61.67
61761;BME280;47664;51.660;-0.100;2023-05-07T09:37:09;101003.78;;;15.51;61.54
61761;BME280;47664;51.660;-0.100;2023-05-07T09:39:40;101009.77;;;15.43;62.26
61761;BME280;47664;51.660;-0.100;2023-05-07T09:42:08;101013.50;;;16.01;61.11
61761;BME280;47664;51.660;-0.100;2023-05-07T09:44:35;101015.00;;;16.42;60.34
61761;BME280;47664;51.660;-0.100;2023-05-07T09:47:05;101018.54;;;16.78;59.02
61761;BME280;47664;51.660;-0.100;2023-05-07T09:49:35;101023.70;;;16.33;58.81
61761;BME280;47664;51.660;-0.100;2023-05-07T09:52:04;101023.99;;;16.35;60.25
61761;BME280;47664;51.660;-0.100;2023-05-07T09:54:32;101024.41;;;16.08;59.87
61761;BME280;47664;51.660;-0.100;2023-05-07T09:57:02;101024.09;;;16.44;59.95
61761;BME280;47664;51.660;-0.100;2023-05-07T09:59:31;101026.56;;;16.20;60.24
61761;BME280;47664;51.660;-0.100;2023-05-07T10:02:00;101027.49;;;16.47;59.78
61761;BME280;47664;51.660;-0.100;2023-05-07T10:04:28;101028.30;;;16.09;60.84
61761;BME280;47664;51.660;-0.100;2023-05-07T10:06:56;101024.15;;;16.04;60.44
61761;BME280;47664;51.660;-0.100;2023-05-07T10:09:25;101022.52;;;15.29;61.51
61761;BME280;47664;51.660;-0.100;2023-05-07T10:11:54;101022.12;;;16.18;60.63
61761;BME280;47664;51.660;-0.100;2023-05-07T10:14:22;101025.78;;;15.77;60.31
61761;BME280;47664;51.660;-0.100;2023-05-07T10:16:49;101032.98;;;16.67;58.96
61761;BME280;47664;51.660;-0.100;2023-05-07T10:19:17;101038.24;;;16.12;59.80
61761;BME280;47664;51.660;-0.100;2023-05-07T10:21:54;101041.66;;;16.54;59.43
61761;BME280;47664;51.660;-0.100;2023-05-07T10:24:25;101044.77;;;15.88;59.34
61761;BME280;47664;51.660;-0.100;2023-05-07T10:26:53;101044.36;;;16.96;59.51
61761;BME280;47664;51.660;-0.100;2023-05-07T10:29:33;101045.86;;;16.22;56.67
61761;BME280;47664;51.660;-0.100;2023-05-07T10:32:15;101049.91;;;16.72;59.06
61761;BME280;47664;51.660;-0.100;2023-05-07T10:34:48;101055.99;;;16.72;59.79
61761;BME280;47664;51.660;-0.100;2023-05-07T10:37:18;101057.41;;;16.34;58.79
61761;BME280;47664;51.660;-0.100;2023-05-07T10:39:46;101060.29;;;16.58;59.76
61761;BME280;47664;51.660;-0.100;2023-05-07T10:42:14;101063.85;;;16.30;60.06
61761;BME280;47664;51.660;-0.100;2023-05-07T10:44:42;101062.93;;;16.56;59.72
61761;BME280;47664;51.660;-0.100;2023-05-07T10:47:09;101067.97;;;16.64;59.76
61761;BME280;47664;51.660;-0.100;2023-05-07T10:50:20;101065.11;;;15.95;60.88
61761;BME280;47664;51.660;-0.100;2023-05-07T10:53:21;101064.45;;;15.88;60.36
61761;BME280;47664;51.660;-0.100;2023-05-07T10:55:50;101064.84;;;16.23;60.50
61761;BME280;47664;51.660;-0.100;2023-05-07T10:58:26;101067.56;;;16.15;59.96
61761;BME280;47664;51.660;-0.100;2023-05-07T11:00:57;101067.08;;;16.65;59.04
61761;BME280;47664;51.660;-0.100;2023-05-07T11:03:25;101064.35;;;16.39;57.65
61761;BME280;47664;51.660;-0.100;2023-05-07T11:06:10;101063.56;;;17.67;56.33
61761;BME280;47664;51.660;-0.100;2023-05-07T11:08:54;101070.41;;;16.55;58.24
61761;BME280;47664;51.660;-0.100;2023-05-07T11:11:44;101073.32;;;16.37;57.41
61761;BME280;47664;51.660;-0.100;2023-05-07T11:14:13;101078.48;;;16.49;58.97
61761;BME280;47664;51.660;-0.100;2023-05-07T11:16:42;101080.65;;;16.63;57.71
61761;BME280;47664;51.660;-0.100;2023-05-07T11:19:10;101079.42;;;16.98;57.43
61761;BME280;47664;51.660;-0.100;2023-05-07T11:21:38;101079.23;;;16.55;57.98
61761;BME280;47664;51.660;-0.100;2023-05-07T11:24:07;101083.68;;;16.60;58.50
61761;BME280;47664;51.660;-0.100;2023-05-07T11:26:44;101083.33;;;16.32;59.18
61761;BME280;47664;51.660;-0.100;2023-05-07T11:29:14;101087.70;;;16.49;59.57
61761;BME280;47664;51.660;-0.100;2023-05-07T11:31:41;101091.04;;;16.69;58.36
61761;BME280;47664;51.660;-0.100;2023-05-07T11:34:09;101094.09;;;16.89;59.08
61761;BME280;47664;51.660;-0.100;2023-05-07T11:36:42;101096.16;;;16.67;58.28
61761;BME280;47664;51.660;-0.100;2023-05-07T11:39:27;101097.64;;;17.80;58.17
61761;BME280;47664;51.660;-0.100;2023-05-07T11:41:54;101103.00;;;16.93;58.30
61761;BME280;47664;51.660;-0.100;2023-05-07T11:44:21;101107.24;;;16.24;57.55
61761;BME280;47664;51.660;-0.100;2023-05-07T11:46:48;101103.96;;;16.99;56.51
61761;BME280;47664;51.660;-0.100;2023-05-07T11:49:17;101102.64;;;16.06;57.01
61761;BME280;47664;51.660;-0.100;2023-05-07T11:51:45;101105.32;;;16.65;56.87
61761;BME280;47664;51.660;-0.100;2023-05-07T11:54:16;101107.62;;;16.39;56.82
61761;BME280;47664;51.660;-0.100;2023-05-07T11:56:44;101108.78;;;16.48;56.91
61761;BME280;47664;51.660;-0.100;2023-05-07T11:59:16;101109.83;;;16.78;56.52
61761;BME280;47664;51.660;-0.100;2023-05-07T12:01:45;101105.57;;;17.47;56.36
61761;BME280;47664;51.660;-0.100;2023-05-07T12:04:13;101101.71;;;17.67;54.69
61761;BME280;47664;51.660;-0.100;2023-05-07T12:06:40;101101.33;;;17.53;54.80
61761;BME280;47664;51.660;-0.100;2023-05-07T12:09:07;101103.84;;;17.95;54.15
61761;BME280;47664;51.660;-0.100;2023-05-07T12:11:34;101099.98;;;17.93;53.85
61761;BME280;47664;51.660;-0.100;2023-05-07T12:14:01;101097.33;;;17.66;54.56
61761;BME280;47664;51.660;-0.100;2023-05-07T12:16:29;101099.83;;;17.54;53.88
61761;BME280;47664;51.660;-0.100;2023-05-07T12:18:56;101106.22;;;18.02;53.01
61761;BME280;47664;51.660;-0.100;2023-05-07T12:21:24;101105.08;;;17.18;53.72
61761;BME280;47664;51.660;-0.100;2023-05-07T12:23:51;101100.93;;;17.75;53.73
61761;BME280;47664;51.660;-0.100;2023-05-07T12:26:19;101099.22;;;16.76;54.42
61761;BME280;47664;51.660;-0.100;2023-05-07T12:28:46;101096.96;;;17.36;53.86
61761;BME280;47664;51.660;-0.100;2023-05-07T12:31:14;101099.72;;;16.85;54.29
61761;BME280;47664;51.660;-0.100;2023-05-07T12:33:42;101104.54;;;17.75;54.31
61761;BME280;47664;51.660;-0.100;2023-05-07T12:36:13;101107.10;;;17.29;54.47
61761;BME280;47664;51.660;-0.100;2023-05-07T12:38:40;101104.22;;;17.29;52.65
61761;BME280;47664;51.660;-0.100;2023-05-07T12:41:09;101106.59;;;17.26;53.95
61761;BME280;47664;51.660;-0.100;2023-05-07T12:43:36;101103.64;;;17.61;53.82
61761;BME280;47664;51.660;-0.100;2023-05-07T12:46:04;101105.69;;;17.96;54.18